AirNav   Bose ProFlight Series 2 Headset
 
 564 users online  

2FL5 Orlando Crossings Heliport
Orlando, Florida, USA


FAA INFORMATION EFFECTIVE 02 JANUARY 2020

Location

FAA Identifier: 2FL5
Lat/Long: 28-27-45.7000N 081-27-18.8900W
28-27.761667N 081-27.314833W
28.4626944,-81.4552472
(estimated)
Elevation: 142 ft. / 43 m (estimated)
From city: 6 miles SW of ORLANDO, FL
Time zone: UTC -5 (UTC -4 during Daylight Saving Time)
Zip code: 32819

Heliport Operations

Heliport use: Private use. Permission required prior to landing
Activation date: 02/2019
Control tower: no
ARTCC: JACKSONVILLE CENTER
FSS: SAINT PETERSBURG FLIGHT SERVICE STATION
Attendance: 
Wind indicator: lighted
Segmented circle: no
Lights: SS-SR

Heliport Communications

WX ASOS at MCO (8 nm E): PHONE 407-855-5235
WX ASOS at ORL (8 nm NE): PHONE 407-658-6753
WX AWOS-3PT at ISM (10 nm S): 128.775 (407-847-0533)

Nearby radio navigation aids

VOR radial/distance  VOR name  Freq  Var
ORLr233/8.0ORLANDO VORTAC112.2000E

Heliport Services

Runway Information

Helipad H1

Dimensions: 34 x 34 ft. / 10 x 10 m
Surface: concrete
Runway edge lights: PERI
AND FLOOD LGTS.
Latitude: 28-27.756167N
Longitude: 081-27.310667W
Elevation: 142.0 ft.
Traffic pattern: leftleft

Helipad H2

Dimensions: 34 x 34 ft. / 10 x 10 m
Surface: concrete
Runway edge lights: PERI
AND FLOOD LGTS.
Latitude: 28-27.767667N
Longitude: 081-27.323000W
Elevation: 142.0 ft.
Traffic pattern: leftleft

Heliport Ownership and Management from official FAA records

Ownership: Privately-owned
Owner: NAFF GROUP LLC
7550 FUTURES DR #205
ORLANDO, FL 32819
Phone 407-346-6960
Manager: ERIKA DUARTE
5525 INTERNATIONAL DRIVE
ORLANDO, FL 32819
Phone 407-499-2036

Heliport Operational Statistics

Aircraft based on the field: 2
Helicopters: 2
    

Additional Remarks

DO NOT CROSS TRANSMISSION LINES TO THE EAST.

Instrument Procedures

There are no published instrument procedures at 2FL5.

Some nearby airports with instrument procedures:

KMCO - Orlando International Airport (8 nm E)
KORL - Executive Airport (8 nm NE)
KISM - Kissimmee Gateway Airport (10 nm S)
X04 - Orlando Apopka Airport (16 nm NW)
KSFB - Orlando Sanford International Airport (22 nm NE)
 
Loc | Ops | Rwys | IFR | FBO | Links
Com | Nav | Svcs | Stats | Notes
Aerial photo
No photo
 
Airport distance calculator
Flying to Orlando Crossings Heliport? Find the distance to fly.

From to 2FL5

Sunrise and sunset
Times for 21-Jan-2020
 Local
(UTC-5)
 Zulu
(UTC)
Morning civil twilight06:5411:54
Sunrise07:1912:19
Sunset17:5522:55
Evening civil twilight18:2023:20

Current date and time
Zulu (UTC)  21-Jan-2020 11:23:57
Local (UTC-5)  21-Jan-2020 06:23:57
 
METAR
KMCO 
7nm SE 
211053Z 34009KT 10SM CLR 07/03 A3017 RMK AO2 SLP217 T00720028
KORL 
8nm NE 
211053Z AUTO 34009G15KT 10SM CLR 06/02 A3018 RMK AO2 SLP224 T00610022
KISM 
11nm S 
211056Z AUTO 34010KT 10SM CLR 07/03 A3019 RMK AO2 SLP224 T00670033 PNO $
TAF
KMCO 
7nm SE 
210901Z 2109/2212 34011KT P6SM FEW030 FM211300 34013G19KT P6SM FEW030 FM211800 35016G24KT P6SM FEW040 FM220000 34014KT P6SM SKC
KISM 
11nm S 
210527Z 2106/2206 34006KT P6SM SKC FM211300 34011KT P6SM FEW030 FM211800 35014G20KT P6SM FEW040 FM220000 34014KT P6SM SKC
NOTAMs
Click for the latest NOTAMs
NOTAMs are issued by the DoD/FAA and will open in a separate window not controlled by AirNav.

 

 
 

Would you like to see your business listed on this page?

 If your business provides an interesting product or service to pilots, flight crews, aircraft, or users of the Orlando Crossings Heliport, you should consider listing it here.  To start the listing process, click on the button below
 
Add a business
 

Other Pages about Orlando Crossings Heliport

Update a link
 
Copyright © AirNav, LLC. All rights reserved. Privacy Policy  Contact